createdAt,value
2023-01-08T11:56:19.986Z,100018.75
2023-01-08T11:59:05.314Z,100021.38
2023-01-08T12:01:46.495Z,100010.00
2023-01-08T12:04:41.176Z,100013.75
2023-01-08T12:07:17.245Z,100007.00
2023-01-08T12:09:49.677Z,100000.56
2023-01-08T12:21:25.597Z,99991.28
2023-01-08T12:24:11.995Z,99990.38
2023-01-08T12:26:54.223Z,99989.19
2023-01-08T12:30:01.118Z,99981.81
2023-01-08T12:32:35.535Z,99980.03
2023-01-08T12:35:09.781Z,99981.63
2023-01-08T12:37:51.086Z,99972.75
2023-01-08T12:40:24.808Z,99967.09
2023-01-08T12:43:00.534Z,99965.13
2023-01-08T12:45:30.604Z,99969.88
2023-01-08T12:48:06.829Z,99980.38
2023-01-08T12:50:51.152Z,99979.81
2023-01-08T12:53:34.902Z,99978.78
2023-01-08T12:56:11.392Z,99972.41
2023-01-08T12:58:59.500Z,99967.22
2023-01-08T13:01:42.535Z,99966.75
2023-01-08T13:04:11.225Z,99959.84
2023-01-08T13:06:48.718Z,99962.72
2023-01-08T13:09:24.227Z,99959.59
2023-01-08T13:11:55.141Z,99952.56
2023-01-08T13:14:25.189Z,99955.78
2023-01-08T13:17:04.803Z,99952.44
2023-01-08T13:19:42.013Z,99937.41
2023-01-08T13:22:28.367Z,99928.06
2023-01-08T13:25:27.118Z,99932.34
2023-01-08T13:27:54.497Z,99928.75
2023-01-08T13:30:42.125Z,99917.81
2023-01-08T13:33:35.732Z,99918.63
2023-01-08T13:36:23.966Z,99917.81
2023-01-08T13:39:04.390Z,99908.69
2023-01-08T13:41:35.457Z,99906.94
2023-01-08T13:44:06.177Z,99906.16
2023-01-08T13:46:40.720Z,99893.56
2023-01-08T13:49:19.127Z,99907.44
2023-01-08T13:51:47.412Z,99901.31
2023-01-08T13:54:31.991Z,99895.44
2023-01-08T13:57:12.144Z,99893.78
2023-01-08T13:59:43.089Z,99891.47
2023-01-08T14:02:28.192Z,99886.28
2023-01-08T14:05:01.496Z,99882.81
2023-01-08T14:07:30.483Z,99885.13
2023-01-08T14:10:08.785Z,99882.34
2023-01-08T14:12:37.157Z,99891.34
2023-01-08T14:15:09.865Z,99879.13
2023-01-08T14:17:37.052Z,99875.66
2023-01-08T14:20:12.951Z,99878.19
2023-01-08T14:22:42.041Z,99876.81
2023-01-08T14:25:17.912Z,99873.25
2023-01-08T14:27:57.700Z,99869.84
2023-01-08T14:30:25.781Z,99868.25
2023-01-08T14:32:54.579Z,99867.69
2023-01-08T14:35:34.348Z,99871.16
2023-01-08T14:38:06.670Z,99862.81
2023-01-08T14:40:42.025Z,99861.88
2023-01-08T14:43:23.061Z,99866.16
2023-01-08T14:45:54.539Z,99862.69
2023-01-08T14:48:25.604Z,99859.00
2023-01-08T14:51:03.041Z,99860.03
2023-01-08T14:53:36.510Z,99857.19
2023-01-08T14:56:06.802Z,99853.84
2023-01-08T14:58:40.135Z,99851.75
2023-01-08T15:01:16.097Z,99848.88
2023-01-08T15:03:45.990Z,99837.25
2023-01-08T15:06:25.355Z,99838.50
2023-01-08T15:08:53.163Z,99837.44
2023-01-08T15:11:23.780Z,99840.66
2023-01-08T15:13:54.341Z,99843.31
2023-01-08T15:16:29.092Z,99836.66
2023-01-08T15:19:05.300Z,99838.25
2023-01-08T15:21:34.445Z,99832.72
2023-01-08T15:24:04.273Z,99829.63
2023-01-08T15:26:31.903Z,99829.97
2023-01-08T15:29:04.635Z,99829.28
2023-01-08T15:31:45.392Z,99825.00
2023-01-08T15:34:12.461Z,99830.31
2023-01-08T15:36:39.411Z,99826.28
2023-01-08T15:39:06.484Z,99823.03
2023-01-08T15:41:54.645Z,99822.72
2023-01-08T15:44:23.628Z,99821.53
2023-01-08T15:46:52.099Z,99812.19
2023-01-08T15:49:19.513Z,99820.97
2023-01-08T15:51:49.747Z,99813.00
2023-01-08T15:54:17.141Z,99814.63
2023-01-08T15:56:44.872Z,99820.75
2023-01-08T15:59:12.091Z,99817.84
2023-01-08T16:01:40.409Z,99822.34
2023-01-08T16:04:07.627Z,99809.31
2023-01-08T16:06:36.103Z,99821.19
2023-01-08T16:09:03.663Z,99820.63
2023-01-08T16:11:30.725Z,99811.84
2023-01-08T16:13:57.636Z,99818.41
2023-01-08T16:16:24.584Z,99822.19
2023-01-08T16:18:52.931Z,99805.56
2023-01-08T16:21:19.808Z,99804.84
2023-01-08T16:23:46.734Z,99805.53
2023-01-08T16:26:16.113Z,99802.56
2023-01-08T16:28:43.009Z,99807.69
2023-01-08T16:31:10.855Z,99800.75
2023-01-08T16:33:38.187Z,99803.56
2023-01-08T16:36:08.829Z,99807.31
2023-01-08T16:38:36.639Z,99805.91
2023-01-08T16:41:05.849Z,99799.69
2023-01-08T16:43:40.516Z,99801.25
2023-01-08T16:46:12.633Z,99796.47
2023-01-08T16:48:40.792Z,99802.09
2023-01-08T16:51:09.760Z,99806.66
2023-01-08T16:53:37.250Z,99811.88
2023-01-08T16:56:05.521Z,99814.03
2023-01-08T16:58:34.843Z,99810.25
2023-01-08T17:01:03.480Z,99801.72
2023-01-08T17:03:30.760Z,99799.13
2023-01-08T17:06:04.514Z,99809.75
2023-01-08T17:08:33.448Z,99805.16
2023-01-08T17:11:00.350Z,99801.44
2023-01-08T17:13:27.203Z,99802.91
2023-01-08T17:15:54.109Z,99803.53
2023-01-08T17:18:21.004Z,99803.19
2023-01-08T17:20:53.319Z,99801.97
2023-01-08T17:23:20.340Z,99804.44
2023-01-08T17:25:48.818Z,99795.94
2023-01-08T17:28:15.688Z,99792.69
2023-01-08T17:30:42.565Z,99786.44
2023-01-08T17:33:09.508Z,99794.41
2023-01-08T17:35:36.367Z,99798.91
2023-01-08T17:38:03.266Z,99795.66
2023-01-08T17:40:30.171Z,99798.50
2023-01-08T17:42:58.349Z,99797.38
2023-01-08T17:45:25.716Z,99789.50
2023-01-08T17:47:52.646Z,99795.00
2023-01-08T17:50:20.129Z,99797.03
2023-01-08T17:52:47.072Z,99798.66
2023-01-08T17:55:13.960Z,99796.66
2023-01-08T17:57:40.994Z,99794.84
2023-01-08T18:00:11.197Z,99792.19
2023-01-08T18:02:38.409Z,99799.47
2023-01-08T18:05:06.592Z,99796.06
2023-01-08T18:07:34.309Z,99798.69
2023-01-08T18:10:01.542Z,99794.22
2023-01-08T18:12:28.559Z,99793.00
2023-01-08T18:14:55.426Z,99794.47
2023-01-08T18:17:23.646Z,99787.97
2023-01-08T18:19:50.496Z,99793.06
2023-01-08T18:22:17.364Z,99797.13
2023-01-08T18:24:45.295Z,99793.88
2023-01-08T18:27:12.364Z,99779.09
2023-01-08T18:29:39.294Z,99790.25
2023-01-08T18:32:06.405Z,99779.69
2023-01-08T18:34:34.745Z,99787.41
2023-01-08T18:37:01.612Z,99782.56
2023-01-08T18:39:29.828Z,99777.50
2023-01-08T18:42:15.169Z,99780.13
2023-01-08T18:44:42.032Z,99778.31
2023-01-08T18:47:09.360Z,99766.72
2023-01-08T18:49:37.857Z,99789.47
2023-01-08T18:52:05.085Z,99777.88
2023-01-08T18:54:33.241Z,99777.69
2023-01-08T18:57:01.995Z,99774.81
2023-01-08T18:59:28.875Z,99768.34
2023-01-08T19:01:55.803Z,99769.94
2023-01-08T19:04:22.743Z,99768.72
2023-01-08T19:06:50.988Z,99771.16
2023-01-08T19:09:17.942Z,99771.97
2023-01-08T19:11:44.979Z,99770.34
2023-01-08T19:14:13.236Z,99765.88
2023-01-08T19:16:40.907Z,99766.69
2023-01-08T19:19:07.832Z,99754.91
2023-01-08T19:21:34.739Z,99755.38
2023-01-08T19:24:02.986Z,99753.31
2023-01-08T19:26:29.834Z,99744.44
2023-01-08T19:28:56.722Z,99743.22
2023-01-08T19:31:23.616Z,99739.19
2023-01-08T19:33:52.623Z,99731.69
2023-01-08T19:36:20.978Z,99725.59
2023-01-08T19:38:47.932Z,99717.09
2023-01-08T19:41:34.388Z,99715.28
2023-01-08T19:44:01.417Z,99717.91
2023-01-08T19:46:29.131Z,99712.81
2023-01-08T19:48:58.552Z,99706.13
2023-01-08T19:51:27.221Z,99699.06
2023-01-08T19:53:56.587Z,99703.56
2023-01-08T19:56:25.000Z,99708.59
2023-01-08T19:58:51.872Z,99695.81
2023-01-08T20:01:24.174Z,99698.28
2023-01-08T20:03:52.182Z,99704.16
2023-01-08T20:06:22.703Z,99697.66
2023-01-08T20:08:54.069Z,99699.69
2023-01-08T20:11:22.325Z,99699.44
2023-01-08T20:13:51.756Z,99696.59
2023-01-08T20:16:21.163Z,99697.78
2023-01-08T20:18:49.162Z,99691.09
2023-01-08T20:21:20.784Z,99693.28
2023-01-08T20:23:48.691Z,99689.25
2023-01-08T20:26:18.349Z,99691.25
2023-01-08T20:28:46.799Z,99685.94
2023-01-08T20:31:17.413Z,99685.06
2023-01-08T20:33:45.729Z,99678.19
2023-01-08T20:36:15.710Z,99680.25
2023-01-08T20:38:43.511Z,99675.59
2023-01-08T20:41:11.351Z,99672.16
2023-01-08T20:43:40.262Z,99657.56
2023-01-08T20:46:09.839Z,99659.00
2023-01-08T20:48:47.044Z,99654.78
2023-01-08T20:51:15.277Z,99655.00
2023-01-08T20:53:42.258Z,99647.53
2023-01-08T20:56:12.397Z,99651.03
2023-01-08T20:58:44.619Z,99642.31
2023-01-08T21:01:14.664Z,99642.13
2023-01-08T21:03:44.570Z,99644.78
2023-01-08T21:06:15.371Z,99647.81
2023-01-08T21:08:44.379Z,99630.59
2023-01-08T21:11:14.009Z,99633.44
2023-01-08T21:13:41.916Z,99634.84
2023-01-08T21:16:14.516Z,99634.25
2023-01-08T21:18:47.079Z,99635.91
2023-01-08T21:21:17.355Z,99628.59
2023-01-08T21:23:46.524Z,99629.00
2023-01-08T21:26:15.697Z,99624.13
2023-01-08T21:28:43.540Z,99617.25
2023-01-08T21:31:14.091Z,99616.03
2023-01-08T21:33:47.746Z,99611.59
2023-01-08T21:36:18.929Z,99602.72
2023-01-08T21:38:46.388Z,99600.06
2023-01-08T21:41:35.614Z,99593.38
2023-01-08T21:44:23.044Z,99601.88
2023-01-08T21:46:50.582Z,99592.56
2023-01-08T21:49:18.766Z,99588.91
2023-01-08T21:52:03.951Z,99584.06
2023-01-08T21:54:30.886Z,99581.63
2023-01-08T21:56:57.781Z,99575.56
2023-01-08T21:59:24.714Z,99580.84
2023-01-08T22:01:51.623Z,99565.44
2023-01-08T22:04:19.878Z,99551.25
2023-01-08T22:06:46.738Z,99550.03
2023-01-08T22:09:13.591Z,99558.94
2023-01-08T22:11:40.471Z,99554.25
2023-01-08T22:14:07.345Z,99555.06
2023-01-08T22:16:34.262Z,99534.22
2023-01-08T22:19:01.260Z,99537.84
2023-01-08T22:21:29.455Z,99536.22
2023-01-08T22:23:56.853Z,99535.03
2023-01-08T22:26:24.046Z,99540.72
2023-01-08T22:28:51.111Z,99540.72
2023-01-08T22:31:18.134Z,99534.84
2023-01-08T22:33:45.054Z,99530.63
2023-01-08T22:36:14.446Z,99529.41
2023-01-08T22:38:42.674Z,99531.81
2023-01-08T22:41:16.928Z,99523.69
2023-01-08T22:43:43.952Z,99521.06
2023-01-08T22:46:14.886Z,99515.00
2023-01-08T22:48:42.454Z,99515.00
2023-01-08T22:51:10.011Z,99503.44
2023-01-08T22:53:37.129Z,99507.69
2023-01-08T22:56:12.153Z,99507.47
2023-01-08T22:58:40.531Z,99501.41
2023-01-08T23:01:12.737Z,99492.28
2023-01-08T23:03:44.426Z,99484.38
2023-01-08T23:06:12.839Z,99472.41
2023-01-08T23:08:41.984Z,99475.50
2023-01-08T23:11:15.378Z,99465.38
2023-01-08T23:13:43.155Z,99466.38
2023-01-08T23:16:13.408Z,99450.38
2023-01-08T23:18:41.344Z,99449.16
2023-01-08T23:21:11.854Z,99458.88
2023-01-08T23:23:39.177Z,99456.44
2023-01-08T23:26:08.948Z,99453.22
2023-01-08T23:28:37.976Z,99460.94
2023-01-08T23:31:06.977Z,99455.66
2023-01-08T23:33:33.852Z,99455.50
2023-01-08T23:36:01.107Z,99444.97
2023-01-08T23:38:28.461Z,99451.47
2023-01-08T23:40:55.887Z,99448.03
2023-01-08T23:43:22.830Z,99438.50
2023-01-08T23:45:52.793Z,99435.66
2023-01-08T23:48:19.689Z,99430.19
2023-01-08T23:50:46.773Z,99428.56
2023-01-08T23:53:13.617Z,99421.28
2023-01-08T23:55:41.344Z,99413.16
2023-01-08T23:58:08.965Z,99409.50
